WetterOnline ( http://www.wetteronline.de )

Wetter aktuell Mühldorf

Aktuelles Wetter: Mühldorf am Inn (410m)

6-stündlich | Neueste Meldungen
Ortszeit Temperatur Wetter
Sa, 21.07. 20:00 19.8° C bedeckt
Sa, 21.07. 14:00 18.3° C leichter Regen
Sa, 21.07. 8:00 18.1° C bedeckt
Sa, 21.07. 2:00 16.9° C bedeckt
Fr, 20.07. 20:00 26.7° C leicht bewölkt
Fr, 20.07. 14:00 27.3° C leicht bewölkt
Fr, 20.07. 8:00 16.3° C wolkenlos
Fr, 20.07. 2:00 11.7° C wolkenlos
Ortszeit Temperatur Wetter
Sa, 21.07. 21:00 18.6° C bedeckt
Sa, 21.07. 20:50 18.6° C bedeckt
Sa, 21.07. 20:40 18.7° C bedeckt
Sa, 21.07. 20:30 19.2° C bedeckt
Sa, 21.07. 20:20 19.2° C bedeckt
Sa, 21.07. 20:10 19.5° C bedeckt
Sa, 21.07. 20:00 19.8° C bedeckt
Sa, 21.07. 19:30 20.2° C bedeckt
Sa, 21.07. 19:00 20.5° C bedeckt
Sa, 21.07. 18:30 20.9° C bewölkt
Sa, 21.07. 18:00 22.1° C bedeckt
Ortszeit Relative Feuchte Sichtweite
Sa, 21.07. 20:00 72% 30 km
Sa, 21.07. 14:00 85% 13 km
Sa, 21.07. 8:00 84% 21 km
Sa, 21.07. 2:00 83% 21 km
Fr, 20.07. 20:00 39% 35 km
Fr, 20.07. 14:00 28% 28 km
Fr, 20.07. 8:00 72% 12 km
Fr, 20.07. 2:00 92% 22 km
Ortszeit Relative Feuchte Sichtweite
Sa, 21.07. 21:00 78% 26 km
Sa, 21.07. 20:50 78% -
Sa, 21.07. 20:40 77% -
Sa, 21.07. 20:30 74% 30 km
Sa, 21.07. 20:20 74% -
Sa, 21.07. 20:10 72% -
Sa, 21.07. 20:00 72% 30 km
Sa, 21.07. 19:30 72% 30 km
Sa, 21.07. 19:00 68% 30 km
Sa, 21.07. 18:30 63% 30 km
Sa, 21.07. 18:00 59% 22 km
Ortszeit Niederschlagsmenge Niederschlagsart
Sa, 21.07. 20:00 0.4 l/m2 in 12 Std. Regen
Sa, 21.07. 14:00 0.3 l/m2 in 6 Std. Regen
Sa, 21.07. 8:00 0.0 l/m2 in 12 Std. -
Sa, 21.07. 2:00 0.0 l/m2 in 6 Std. -
Fr, 20.07. 20:00 0.0 l/m2 in 12 Std. -
Fr, 20.07. 14:00 0.1 l/m2 in 6 Std. Sprühregen
Fr, 20.07. 8:00 0.0 l/m2 in 12 Std. -
Fr, 20.07. 2:00 0.0 l/m2 in 6 Std. -
Ortszeit Niederschlagsmenge Niederschlagsart
Sa, 21.07. 21:00 0.0 l/m2 in 1 Std. -
Sa, 21.07. 20:50 keine Meldung -
Sa, 21.07. 20:40 keine Meldung -
Sa, 21.07. 20:30 0.0 l/m2 in 1 Std. -
Sa, 21.07. 20:20 keine Meldung -
Sa, 21.07. 20:10 keine Meldung -
Sa, 21.07. 20:00 0.0 l/m2 in 1 Std. Regen
Sa, 21.07. 19:30 0.0 l/m2 in 1 Std. -
Sa, 21.07. 19:00 0.0 l/m2 in 1 Std. -
Sa, 21.07. 18:30 0.0 l/m2 in 1 Std. -
Sa, 21.07. 18:00 0.0 l/m2 in 1 Std. -
Ortszeit Stärke Spitze Richtung
km/h Bft. km/h Grad Sektor
Sa, 21.07. 20:00 9 2 24 280° W
Sa, 21.07. 14:00 17 3 33 280° W
Sa, 21.07. 8:00 6 1 7 270° W
Sa, 21.07. 2:00 4 1 11 310° NW
Fr, 20.07. 20:00 7 2 18 100° O
Fr, 20.07. 14:00 7 2 18 360° N
Fr, 20.07. 8:00 6 1 7 80° O
Fr, 20.07. 2:00 0 0 11 - -
Ortszeit Stärke Spitze Richtung
km/h Bft. km/h Grad Sektor
Sa, 21.07. 21:00 7 2 11 260° W
Sa, 21.07. 20:50 7 2 - 260° W
Sa, 21.07. 20:40 6 1 - 260° W
Sa, 21.07. 20:30 7 2 11 290° W
Sa, 21.07. 20:20 7 2 - 290° W
Sa, 21.07. 20:10 7 2 - 290° W
Sa, 21.07. 20:00 9 2 15 280° W
Sa, 21.07. 19:30 9 2 15 280° W
Sa, 21.07. 19:00 13 3 19 280° W
Sa, 21.07. 18:30 11 2 18 270° W
Sa, 21.07. 18:00 11 2 22 260° W
Ortszeit Untergrenze Bedeckung Gattung
total tief tief mittel hoch
Sa, 21.07. 20:00 3000 m 8/8 8/8 - - -
Sa, 21.07. 14:00 420 m 8/8 8/8 - - -
Sa, 21.07. 8:00 2400 m 8/8 8/8 - - -
Sa, 21.07. 2:00 5700 m 8/8 8/8 - - -
Fr, 20.07. 20:00 8700 m 6/8 0/8 - - -
Fr, 20.07. 14:00 4800 m 4/8 4/8 - - -
Fr, 20.07. 8:00 - 0/8 0/8 - - -
Fr, 20.07. 2:00 - 0/8 0/8 - - -
Ortszeit Bedeckungsgrad in Achtel und Wolkenuntergrenze
Sa, 21.07. 21:00 8(3000m) 8(4200m)
Sa, 21.07. 20:50 8(3000m) 8(4200m)
Sa, 21.07. 20:40 8(3000m) 8(4200m)
Sa, 21.07. 20:30 7(3300m) 8(4200m)
Sa, 21.07. 20:20 7(3300m) 8(4200m)
Sa, 21.07. 20:10 8(3900m)
Sa, 21.07. 20:00 1(3000m) 8(3900m) 8(4500m)
Sa, 21.07. 19:30 6(3000m) 8(3900m) 8(4500m)
Sa, 21.07. 19:00 8(2700m) 8(4500m)
Sa, 21.07. 18:30 5(2700m) 7(4800m) 8(10500m)
Sa, 21.07. 18:00 7(3900m) 8(4500m) 8(10500m)
Ortszeit Luftdruck NN (hPa) Tendenz (hPa in 3 Std.)
Sa, 21.07. 20:00 1011 - 0,4
Sa, 21.07. 14:00 1013 + 1,0
Sa, 21.07. 8:00 1012 0,0
Sa, 21.07. 2:00 1012 0,0
Fr, 20.07. 20:00 1010 - 0,7
Fr, 20.07. 14:00 1012 - 1,1
Fr, 20.07. 8:00 1015 - 0,2
Fr, 20.07. 2:00 1017 + 0,2
Ortszeit Luftdruck NN (hPa) Tendenz (hPa in 3 Std.)
Sa, 21.07. 21:00 1011 - 0,1
Sa, 21.07. 20:50 1011 keine Meldung
Sa, 21.07. 20:40 1011 keine Meldung
Sa, 21.07. 20:30 1011 - 0,4
Sa, 21.07. 20:20 1011 keine Meldung
Sa, 21.07. 20:10 1011 keine Meldung
Sa, 21.07. 20:00 1011 - 0,4
Sa, 21.07. 19:30 1011 - 0,5
Sa, 21.07. 19:00 1011 - 0,9
Sa, 21.07. 18:30 1011 - 1,1
Sa, 21.07. 18:00 1011 - 1,1
Ortszeit Schneehöhe (cm)
Sa, 21.07. 20:00 -
Sa, 21.07. 14:00 -
Sa, 21.07. 8:00 -
Sa, 21.07. 2:00 -
Fr, 20.07. 20:00 -
Fr, 20.07. 14:00 -
Fr, 20.07. 8:00 -
Fr, 20.07. 2:00 -
Ortszeit Schneehöhe (cm)
Sa, 21.07. 21:00 -
Sa, 21.07. 20:50 -
Sa, 21.07. 20:40 -
Sa, 21.07. 20:30 -
Sa, 21.07. 20:20 -
Sa, 21.07. 20:10 -
Sa, 21.07. 20:00 -
Sa, 21.07. 19:30 -
Sa, 21.07. 19:00 -
Sa, 21.07. 18:30 -
Sa, 21.07. 18:00 -
Link zu dieser Seite / Seite empfehlen

Das Wetter in ...